Time;durP1;ratioP1;P1;durP2;ratioP2;P2;SDS_P1;SDS_P2;PMS_P1;PMS_P2;Temp;Humidity;BMP_temperature;BMP_pressure;BME280_temperature;BME280_humidity;BME280_pressure;Samples;Min_cycle;Max_cycle;Signal;HPM_P1;HPM_P2
2023/01/11 00:00:12;;;;;;;0.80;0.80;;;;;;;;;;5068534;28;20439;-76
2023/01/11 00:02:38;;;;;;;0.50;0.50;;;;;;;;;;5081086;28;20927;-76
2023/01/11 00:05:06;;;;;;;5.67;0.60;;;;;;;;;;5091256;28;20518;-77
2023/01/11 00:07:32;;;;;;;0.40;0.40;;;;;;;;;;5082413;28;20436;-77
2023/01/11 00:10:00;;;;;;;0.47;0.47;;;;;;;;;;5074301;28;20310;-75
2023/01/11 00:12:28;;;;;;;0.97;0.97;;;;;;;;;;5098155;28;20432;-76
2023/01/11 00:14:54;;;;;;;0.70;0.70;;;;;;;;;;5087800;28;20579;-75
2023/01/11 00:17:19;;;;;;;2.10;0.60;;;;;;;;;;5084601;28;20590;-75
2023/01/11 00:19:45;;;;;;;0.63;0.63;;;;;;;;;;5075777;28;20437;-77
2023/01/11 00:22:11;;;;;;;0.80;0.80;;;;;;;;;;5090754;28;20809;-76
2023/01/11 00:24:37;;;;;;;0.83;0.83;;;;;;;;;;5076750;28;20510;-76
2023/01/11 00:27:03;;;;;;;0.60;0.60;;;;;;;;;;5111207;27;20981;-76
2023/01/11 00:29:29;;;;;;;0.60;0.60;;;;;;;;;;5077036;28;20569;-76
2023/01/11 00:31:55;;;;;;;0.50;0.50;;;;;;;;;;5089108;28;20557;-76
2023/01/11 00:34:21;;;;;;;0.40;0.40;;;;;;;;;;5085096;28;20942;-77
2023/01/11 00:36:47;;;;;;;0.43;0.40;;;;;;;;;;5083844;28;21098;-77
2023/01/11 00:39:13;;;;;;;0.40;0.40;;;;;;;;;;5076537;28;20401;-77
2023/01/11 00:50:00;;;;;;;0.40;0.40;;;;;;;;;;5078320;28;20416;-76
2023/01/11 00:52:26;;;;;;;0.37;0.37;;;;;;;;;;5094705;28;20443;-75
2023/01/11 00:54:52;;;;;;;0.50;0.50;;;;;;;;;;5082711;28;20795;-77
2023/01/11 00:57:18;;;;;;;0.40;0.40;;;;;;;;;;5096661;28;20470;-77
2023/01/11 00:59:44;;;;;;;0.67;0.67;;;;;;;;;;5095119;28;20456;-77
2023/01/11 01:02:10;;;;;;;1.03;0.30;;;;;;;;;;5085361;28;20962;-77
2023/01/11 01:04:37;;;;;;;0.33;0.33;;;;;;;;;;5073121;28;20532;-78
2023/01/11 01:07:03;;;;;;;0.33;0.33;;;;;;;;;;5066439;28;20516;-77
2023/01/11 01:09:29;;;;;;;0.40;0.40;;;;;;;;;;5065360;28;20441;-77
2023/01/11 01:11:55;;;;;;;0.30;0.30;;;;;;;;;;5090923;28;20436;-77
2023/01/11 01:14:32;;;;;;;0.40;0.40;;;;;;;;;;5082623;28;20550;-77
2023/01/11 01:17:00;;;;;;;0.30;0.30;;;;;;;;;;5073919;28;20467;-76
2023/01/11 01:19:29;;;;;;;0.30;0.30;;;;;;;;;;5076679;28;20428;-76
2023/01/11 01:21:56;;;;;;;0.57;0.57;;;;;;;;;;5080426;28;20451;-76
2023/01/11 01:24:22;;;;;;;0.33;0.33;;;;;;;;;;5095701;28;21032;-77
2023/01/11 01:26:48;;;;;;;0.30;0.30;;;;;;;;;;5082287;28;20489;-76
2023/01/11 01:29:14;;;;;;;0.30;0.30;;;;;;;;;;5073949;28;20456;-76
2023/01/11 01:31:41;;;;;;;0.33;0.33;;;;;;;;;;5080870;28;20444;-75
2023/01/11 01:34:08;;;;;;;0.50;0.50;;;;;;;;;;5083015;28;20433;-76
2023/01/11 01:36:33;;;;;;;0.60;0.57;;;;;;;;;;5077423;28;21065;-76
2023/01/11 01:39:00;;;;;;;0.30;0.30;;;;;;;;;;5074859;28;20524;-77
2023/01/11 01:41:26;;;;;;;0.50;0.50;;;;;;;;;;5079288;28;20505;-77
2023/01/11 01:43:56;;;;;;;0.60;0.60;;;;;;;;;;5083833;28;20424;-77
2023/01/11 01:46:23;;;;;;;0.30;0.30;;;;;;;;;;5072461;28;20427;-77
2023/01/11 01:48:50;;;;;;;0.40;0.40;;;;;;;;;;5087163;28;20785;-77
2023/01/11 01:51:20;;;;;;;0.30;0.30;;;;;;;;;;5095839;28;20526;-76
2023/01/11 01:53:47;;;;;;;0.30;0.30;;;;;;;;;;5078199;28;20755;-76
2023/01/11 01:56:17;;;;;;;2.23;0.40;;;;;;;;;;5075787;28;20458;-76
2023/01/11 01:58:49;;;;;;;0.33;0.33;;;;;;;;;;5088257;28;20392;-75
2023/01/11 02:04:03;;;;;;;0.40;0.40;;;;;;;;;;5088536;28;20410;-76
2023/01/11 02:06:29;;;;;;;0.40;0.40;;;;;;;;;;5084216;28;20512;-76
2023/01/11 02:08:58;;;;;;;0.30;0.30;;;;;;;;;;5104109;28;20495;-76
2023/01/11 02:11:28;;;;;;;0.30;0.30;;;;;;;;;;5084906;27;20941;-77
2023/01/11 02:13:55;;;;;;;0.40;0.40;;;;;;;;;;5095960;28;20451;-77
2023/01/11 02:16:21;;;;;;;0.67;0.40;;;;;;;;;;5078149;28;20479;-76
2023/01/11 02:18:47;;;;;;;0.27;0.27;;;;;;;;;;5083918;28;20789;-77
2023/01/11 02:21:16;;;;;;;0.30;0.30;;;;;;;;;;5098949;28;20451;-77
2023/01/11 02:24:01;;;;;;;0.60;0.60;;;;;;;;;;5089520;28;20419;-76
2023/01/11 02:26:54;;;;;;;1.10;0.40;;;;;;;;;;5094929;28;20503;-76
2023/01/11 02:29:35;;;;;;;0.87;0.87;;;;;;;;;;5088124;28;20404;-77
2023/01/11 02:32:18;;;;;;;0.30;0.30;;;;;;;;;;5077550;28;20435;-77
2023/01/11 02:34:47;;;;;;;0.40;0.40;;;;;;;;;;5075772;28;20461;-77
2023/01/11 02:37:27;;;;;;;0.30;0.30;;;;;;;;;;5105505;28;20668;-78
2023/01/11 02:40:01;;;;;;;0.30;0.30;;;;;;;;;;5088985;28;20499;-78
2023/01/11 02:45:31;;;;;;;0.40;0.40;;;;;;;;;;5091745;28;20486;-78
2023/01/11 02:47:59;;;;;;;0.40;0.40;;;;;;;;;;5101354;28;20743;-77
2023/01/11 02:50:39;;;;;;;0.40;0.40;;;;;;;;;;5082211;28;20481;-78
2023/01/11 02:53:13;;;;;;;0.30;0.30;;;;;;;;;;5095901;28;20426;-78
2023/01/11 02:55:42;;;;;;;0.87;0.60;;;;;;;;;;5076665;28;20438;-76
2023/01/11 02:58:10;;;;;;;0.33;0.33;;;;;;;;;;5091899;28;20845;-78
2023/01/11 03:00:40;;;;;;;0.30;0.30;;;;;;;;;;5075719;28;20448;-77
2023/01/11 03:03:12;;;;;;;0.47;0.47;;;;;;;;;;5098730;28;20428;-78
2023/01/11 03:05:44;;;;;;;0.40;0.40;;;;;;;;;;5074512;28;20401;-78
2023/01/11 03:08:17;;;;;;;0.40;0.40;;;;;;;;;;5096687;28;20961;-77
2023/01/11 03:10:56;;;;;;;1.13;0.40;;;;;;;;;;5085696;28;20436;-78
2023/01/11 03:13:28;;;;;;;0.70;0.50;;;;;;;;;;5074746;28;20955;-78
2023/01/11 03:16:01;;;;;;;0.50;0.40;;;;;;;;;;5078512;28;20463;-78
2023/01/11 03:18:36;;;;;;;0.60;0.50;;;;;;;;;;5091549;28;20470;-78
2023/01/11 03:21:16;;;;;;;0.70;0.70;;;;;;;;;;5087817;28;20635;-78
2023/01/11 03:23:58;;;;;;;1.10;1.10;;;;;;;;;;5083252;28;20554;-79
2023/01/11 03:26:24;;;;;;;0.97;0.50;;;;;;;;;;5074571;28;20427;-78
2023/01/11 03:29:16;;;;;;;0.67;0.50;;;;;;;;;;5089956;28;20427;-78
2023/01/11 03:31:45;;;;;;;0.40;0.40;;;;;;;;;;5081482;28;20484;-78
2023/01/11 03:34:26;;;;;;;0.40;0.40;;;;;;;;;;5092536;28;20431;-78
2023/01/11 03:36:55;;;;;;;0.73;0.57;;;;;;;;;;5073280;28;20537;-79
2023/01/11 03:39:31;;;;;;;0.53;0.53;;;;;;;;;;5093688;28;20461;-79
2023/01/11 03:41:59;;;;;;;0.50;0.50;;;;;;;;;;5101502;28;20435;-79
2023/01/11 03:44:26;;;;;;;0.60;0.60;;;;;;;;;;5097769;28;20552;-79
2023/01/11 03:46:54;;;;;;;0.50;0.50;;;;;;;;;;5079667;28;20430;-78
2023/01/11 03:49:29;;;;;;;0.47;0.43;;;;;;;;;;5092899;28;20431;-78
2023/01/11 03:51:56;;;;;;;0.50;0.50;;;;;;;;;;5089018;28;20791;-78
2023/01/11 03:54:24;;;;;;;0.50;0.50;;;;;;;;;;5081534;28;20452;-77
2023/01/11 03:57:01;;;;;;;0.40;0.40;;;;;;;;;;5082066;28;20472;-78
2023/01/11 03:59:27;;;;;;;0.60;0.60;;;;;;;;;;5096380;27;21049;-78
2023/01/11 04:01:54;;;;;;;0.80;0.80;;;;;;;;;;5087358;28;20515;-79
2023/01/11 04:04:20;;;;;;;0.47;0.47;;;;;;;;;;5094196;28;20444;-77
2023/01/11 04:06:45;;;;;;;0.60;0.60;;;;;;;;;;5085582;28;20498;-77
2023/01/11 04:09:12;;;;;;;0.60;0.60;;;;;;;;;;5086802;28;20470;-77
2023/01/11 04:11:38;;;;;;;0.60;0.60;;;;;;;;;;5086931;28;20777;-77
2023/01/11 04:14:04;;;;;;;0.60;0.60;;;;;;;;;;5083502;28;20463;-77
2023/01/11 04:16:30;;;;;;;0.53;0.53;;;;;;;;;;5092577;28;20495;-78
2023/01/11 04:18:56;;;;;;;0.40;0.40;;;;;;;;;;5087662;28;20476;-78
2023/01/11 04:21:22;;;;;;;0.70;0.70;;;;;;;;;;5092055;28;20452;-77
2023/01/11 04:23:48;;;;;;;0.60;0.60;;;;;;;;;;5084225;28;20431;-78
2023/01/11 04:26:16;;;;;;;0.70;0.70;;;;;;;;;;5080767;28;20420;-78
2023/01/11 04:28:42;;;;;;;0.87;0.87;;;;;;;;;;5079377;28;20785;-77
2023/01/11 04:31:08;;;;;;;0.90;0.90;;;;;;;;;;5082890;28;20428;-77
2023/01/11 04:33:34;;;;;;;1.10;1.10;;;;;;;;;;5088293;28;20431;-77
2023/01/11 04:36:04;;;;;;;1.00;1.00;;;;;;;;;;5071975;28;20561;-77
2023/01/11 04:38:30;;;;;;;1.27;1.27;;;;;;;;;;5095480;28;20542;-77
2023/01/11 04:42:17;;;;;;;0.60;0.60;;;;;;;;;;5095878;28;20490;-78
2023/01/11 04:43:41;;;;;;;0.50;0.50;;;;;;;;;;5078532;28;20437;-77
2023/01/11 04:46:09;;;;;;;1.00;1.00;;;;;;;;;;5086351;28;20443;-77
2023/01/11 04:48:35;;;;;;;0.70;0.70;;;;;;;;;;5076282;28;20427;-77
2023/01/11 04:51:01;;;;;;;1.00;1.00;;;;;;;;;;5076061;28;21221;-77
2023/01/11 04:53:27;;;;;;;0.90;0.90;;;;;;;;;;5080688;28;20420;-77
2023/01/11 04:55:53;;;;;;;1.00;1.00;;;;;;;;;;5084235;28;21119;-77
2023/01/11 04:58:20;;;;;;;1.00;1.00;;;;;;;;;;5079615;28;20463;-77
2023/01/11 05:00:46;;;;;;;0.70;0.70;;;;;;;;;;5083292;28;20765;-77
2023/01/11 05:03:12;;;;;;;1.00;1.00;;;;;;;;;;5095986;28;20469;-77
2023/01/11 05:05:38;;;;;;;1.00;1.00;;;;;;;;;;5085493;28;20431;-76
2023/01/11 05:08:04;;;;;;;1.40;1.13;;;;;;;;;;5082090;28;20600;-78
2023/01/11 05:10:31;;;;;;;0.80;0.80;;;;;;;;;;5074044;28;20435;-77
2023/01/11 05:12:57;;;;;;;0.77;0.77;;;;;;;;;;5089707;28;20432;-77
2023/01/11 05:15:23;;;;;;;1.20;1.20;;;;;;;;;;5080932;28;20824;-78
2023/01/11 05:17:49;;;;;;;1.50;0.80;;;;;;;;;;5091078;28;20509;-78
2023/01/11 05:20:15;;;;;;;1.20;1.20;;;;;;;;;;5078782;28;20458;-77
2023/01/11 05:22:41;;;;;;;0.90;0.90;;;;;;;;;;5093173;28;20471;-78
2023/01/11 05:25:07;;;;;;;1.13;1.13;;;;;;;;;;5092998;28;20444;-78
2023/01/11 05:27:33;;;;;;;0.93;0.93;;;;;;;;;;5091804;28;20442;-77
2023/01/11 05:29:59;;;;;;;1.10;1.10;;;;;;;;;;5088104;28;20435;-77
2023/01/11 05:32:25;;;;;;;0.90;0.90;;;;;;;;;;5074283;28;20440;-77
2023/01/11 05:34:51;;;;;;;1.10;1.10;;;;;;;;;;5089365;28;20443;-79
2023/01/11 05:37:17;;;;;;;0.97;0.97;;;;;;;;;;5089247;28;20486;-78
2023/01/11 05:39:43;;;;;;;1.50;1.33;;;;;;;;;;5083488;28;20468;-78
2023/01/11 05:42:09;;;;;;;1.40;1.30;;;;;;;;;;5079817;28;20789;-78
2023/01/11 05:47:20;;;;;;;1.17;1.17;;;;;;;;;;5062242;28;20404;-79
2023/01/11 05:49:46;;;;;;;1.37;1.37;;;;;;;;;;5078711;28;20550;-77
2023/01/11 05:52:12;;;;;;;1.53;1.53;;;;;;;;;;5090844;28;20872;-78
2023/01/11 05:54:38;;;;;;;0.80;0.80;;;;;;;;;;5078140;28;20568;-77
2023/01/11 05:57:09;;;;;;;1.20;1.10;;;;;;;;;;5086493;28;21139;-77
2023/01/11 05:59:35;;;;;;;0.83;0.83;;;;;;;;;;5080355;28;20436;-78
2023/01/11 06:02:01;;;;;;;1.10;1.10;;;;;;;;;;5074316;28;20898;-78
2023/01/11 06:04:27;;;;;;;1.30;1.30;;;;;;;;;;5084639;28;20531;-78
2023/01/11 06:06:53;;;;;;;0.90;0.90;;;;;;;;;;5104231;28;20432;-78
2023/01/11 06:09:19;;;;;;;0.90;0.90;;;;;;;;;;5072762;28;20523;-78
2023/01/11 06:11:45;;;;;;;1.00;1.00;;;;;;;;;;5089711;28;20434;-79
2023/01/11 06:14:11;;;;;;;1.40;1.40;;;;;;;;;;5075229;28;20449;-78
2023/01/11 06:16:37;;;;;;;1.20;1.10;;;;;;;;;;5088382;28;20770;-79
2023/01/11 06:19:03;;;;;;;0.83;0.83;;;;;;;;;;5088602;28;20484;-80
2023/01/11 06:21:29;;;;;;;1.13;1.13;;;;;;;;;;5083327;28;20456;-78
2023/01/11 06:23:55;;;;;;;1.90;0.97;;;;;;;;;;5094718;28;20447;-78
2023/01/11 06:26:22;;;;;;;1.10;1.10;;;;;;;;;;5071875;28;20826;-79
2023/01/11 06:28:48;;;;;;;1.30;1.30;;;;;;;;;;5067419;28;20463;-79
2023/01/11 06:31:14;;;;;;;1.67;1.67;;;;;;;;;;5086597;28;20442;-78
2023/01/11 06:33:40;;;;;;;1.20;1.20;;;;;;;;;;5087356;28;20443;-77
2023/01/11 06:36:08;;;;;;;1.10;1.10;;;;;;;;;;5078930;28;20416;-79
2023/01/11 06:38:34;;;;;;;1.90;1.80;;;;;;;;;;5084620;28;20552;-78
2023/01/11 06:41:01;;;;;;;1.83;1.83;;;;;;;;;;5082921;28;20417;-79
2023/01/11 06:43:27;;;;;;;1.87;1.87;;;;;;;;;;5077758;28;20433;-78
2023/01/11 06:45:53;;;;;;;0.87;0.87;;;;;;;;;;5084855;28;20404;-78
2023/01/11 06:48:20;;;;;;;1.53;1.53;;;;;;;;;;5092852;28;20430;-79
2023/01/11 06:50:51;;;;;;;2.03;2.03;;;;;;;;;;5088809;28;20467;-78
2023/01/11 06:53:16;;;;;;;1.77;1.77;;;;;;;;;;5082888;28;20455;-79
2023/01/11 06:55:43;;;;;;;1.97;1.97;;;;;;;;;;5098063;27;20962;-78
2023/01/11 06:58:09;;;;;;;1.80;1.73;;;;;;;;;;5090904;27;20566;-79
2023/01/11 07:00:35;;;;;;;2.30;2.30;;;;;;;;;;5081855;28;21069;-79
2023/01/11 07:03:04;;;;;;;2.40;2.40;;;;;;;;;;5087199;28;20424;-79
2023/01/11 07:05:33;;;;;;;2.10;2.10;;;;;;;;;;5087812;28;20432;-78
2023/01/11 07:07:59;;;;;;;2.50;2.50;;;;;;;;;;5081114;28;20477;-78
2023/01/11 07:10:26;;;;;;;3.07;2.97;;;;;;;;;;5102027;27;20444;-77
2023/01/11 07:12:52;;;;;;;2.50;2.50;;;;;;;;;;5106045;27;20435;-78
2023/01/11 07:15:18;;;;;;;4.00;3.90;;;;;;;;;;5080381;28;20535;-79
2023/01/11 07:17:46;;;;;;;3.80;3.70;;;;;;;;;;5079607;28;20919;-80
2023/01/11 07:20:13;;;;;;;4.13;3.93;;;;;;;;;;5087065;28;20439;-77
2023/01/11 07:22:39;;;;;;;2.70;2.60;;;;;;;;;;5081595;28;20450;-78
2023/01/11 07:25:05;;;;;;;2.60;2.60;;;;;;;;;;5104229;27;20444;-77
2023/01/11 07:27:31;;;;;;;1.90;1.90;;;;;;;;;;5085224;28;20505;-77
2023/01/11 07:30:00;;;;;;;2.07;2.07;;;;;;;;;;5091367;28;20467;-77
2023/01/11 07:32:27;;;;;;;1.40;1.40;;;;;;;;;;5090177;28;20515;-78
2023/01/11 07:34:54;;;;;;;1.17;1.17;;;;;;;;;;5074166;28;20449;-78
2023/01/11 07:37:20;;;;;;;1.40;1.40;;;;;;;;;;5087476;28;20455;-78
2023/01/11 07:39:46;;;;;;;1.40;1.40;;;;;;;;;;5095015;27;20497;-77
2023/01/11 07:44:57;;;;;;;1.80;1.80;;;;;;;;;;5073728;28;20485;-78
2023/01/11 07:47:23;;;;;;;1.70;1.70;;;;;;;;;;5082137;28;20854;-77
2023/01/11 07:49:49;;;;;;;1.90;1.90;;;;;;;;;;5082516;28;20451;-78
2023/01/11 07:52:15;;;;;;;1.70;1.70;;;;;;;;;;5081815;28;20432;-78
2023/01/11 07:54:41;;;;;;;1.90;1.90;;;;;;;;;;5084531;28;20448;-80
2023/01/11 07:57:07;;;;;;;2.30;2.10;;;;;;;;;;5098247;27;20523;-80
2023/01/11 07:59:33;;;;;;;2.20;2.20;;;;;;;;;;5096673;28;20491;-78
2023/01/11 08:01:59;;;;;;;2.40;2.23;;;;;;;;;;5083602;28;20900;-78
2023/01/11 08:04:25;;;;;;;4.50;2.67;;;;;;;;;;5081608;28;20453;-78
2023/01/11 08:06:51;;;;;;;2.60;2.40;;;;;;;;;;5080917;28;20413;-77
2023/01/11 08:09:17;;;;;;;2.20;2.10;;;;;;;;;;5083258;28;20557;-77
2023/01/11 08:14:40;;;;;;;2.40;2.20;;;;;;;;;;5085285;28;20589;-79
2023/01/11 08:17:06;;;;;;;2.33;2.13;;;;;;;;;;5080367;28;20568;-78
2023/01/11 08:19:32;;;;;;;2.77;2.63;;;;;;;;;;5080276;28;20509;-78
2023/01/11 08:21:58;;;;;;;3.17;2.87;;;;;;;;;;5087847;28;20460;-78
2023/01/11 08:24:25;;;;;;;2.47;1.83;;;;;;;;;;5086515;28;20427;-78
2023/01/11 08:26:51;;;;;;;2.10;2.10;;;;;;;;;;5085833;28;20428;-77
2023/01/11 08:29:18;;;;;;;1.80;1.70;;;;;;;;;;5059893;28;20520;-78
2023/01/11 08:31:44;;;;;;;2.30;2.10;;;;;;;;;;5080052;28;20914;-78
2023/01/11 08:34:10;;;;;;;2.10;1.60;;;;;;;;;;5084796;28;20460;-78
2023/01/11 08:36:36;;;;;;;2.67;2.57;;;;;;;;;;5069748;28;20659;-78
2023/01/11 08:39:02;;;;;;;2.70;2.50;;;;;;;;;;5095473;27;20450;-77
2023/01/11 08:41:28;;;;;;;3.00;2.80;;;;;;;;;;5075390;28;20942;-78
2023/01/11 08:43:54;;;;;;;2.63;2.53;;;;;;;;;;5082401;28;20431;-79
2023/01/11 08:46:21;;;;;;;2.60;2.50;;;;;;;;;;5083905;28;20412;-79
2023/01/11 08:48:47;;;;;;;4.17;3.40;;;;;;;;;;5075661;28;20994;-77
2023/01/11 08:51:14;;;;;;;4.90;4.60;;;;;;;;;;5080886;28;20407;-78
2023/01/11 08:53:43;;;;;;;4.27;3.97;;;;;;;;;;5081510;28;20429;-78
2023/01/11 08:56:09;;;;;;;4.07;3.87;;;;;;;;;;5079192;28;20919;-77
2023/01/11 08:58:35;;;;;;;3.97;3.77;;;;;;;;;;5075436;28;20477;-77
2023/01/11 09:01:02;;;;;;;4.13;3.23;;;;;;;;;;5079022;28;20421;-78
2023/01/11 09:03:31;;;;;;;3.50;3.20;;;;;;;;;;5076521;28;20468;-77
2023/01/11 09:05:57;;;;;;;2.77;2.50;;;;;;;;;;5076425;28;20777;-80
2023/01/11 09:08:24;;;;;;;12.13;4.37;;;;;;;;;;5078306;28;20451;-78
2023/01/11 09:10:50;;;;;;;5.00;2.50;;;;;;;;;;5070813;28;20466;-79
2023/01/11 09:13:16;;;;;;;8.10;2.77;;;;;;;;;;5083559;28;20469;-78
2023/01/11 09:15:45;;;;;;;12.70;3.50;;;;;;;;;;5086001;28;20465;-77
2023/01/11 09:18:12;;;;;;;5.67;2.40;;;;;;;;;;5090017;28;20833;-80
2023/01/11 09:20:38;;;;;;;10.73;3.40;;;;;;;;;;5087016;28;20477;-78
2023/01/11 09:23:04;;;;;;;11.63;3.00;;;;;;;;;;5092297;28;20443;-79
2023/01/11 09:25:30;;;;;;;7.33;3.70;;;;;;;;;;5069806;28;21017;-78
2023/01/11 09:27:56;;;;;;;10.50;3.60;;;;;;;;;;5083936;28;20448;-79
2023/01/11 09:30:23;;;;;;;5.83;2.80;;;;;;;;;;5075781;28;20463;-78
2023/01/11 09:32:50;;;;;;;9.90;4.20;;;;;;;;;;5079271;28;20420;-79
2023/01/11 09:35:19;;;;;;;15.60;3.30;;;;;;;;;;5074730;28;20780;-77
2023/01/11 09:37:50;;;;;;;9.43;3.13;;;;;;;;;;5084364;28;20550;-78
2023/01/11 09:40:44;;;;;;;8.37;3.50;;;;;;;;;;5089245;28;20508;-80
2023/01/11 09:43:13;;;;;;;11.97;3.90;;;;;;;;;;5064495;28;20483;-78
2023/01/11 09:45:45;;;;;;;4.83;3.07;;;;;;;;;;5086111;28;20474;-78
2023/01/11 09:48:27;;;;;;;7.17;3.10;;;;;;;;;;5074205;28;20927;-79
2023/01/11 09:50:54;;;;;;;5.20;3.33;;;;;;;;;;5082299;28;20452;-78
2023/01/11 09:53:23;;;;;;;17.90;4.00;;;;;;;;;;5088025;28;20464;-79
2023/01/11 09:55:51;;;;;;;4.97;2.83;;;;;;;;;;5072489;28;20744;-79
2023/01/11 09:58:36;;;;;;;3.30;2.80;;;;;;;;;;5077984;28;20963;-79
2023/01/11 10:01:22;;;;;;;6.00;2.83;;;;;;;;;;5087201;28;20782;-79
2023/01/11 10:04:04;;;;;;;6.50;2.83;;;;;;;;;;5081769;28;20431;-79
2023/01/11 10:06:43;;;;;;;7.70;3.90;;;;;;;;;;5068640;28;20477;-79
2023/01/11 10:09:21;;;;;;;12.00;3.70;;;;;;;;;;5082598;28;21058;-79
2023/01/11 10:12:04;;;;;;;9.00;3.30;;;;;;;;;;5081163;28;20407;-78
2023/01/11 10:14:30;;;;;;;18.30;3.40;;;;;;;;;;5090102;28;20462;-79
2023/01/11 10:16:58;;;;;;;4.90;3.03;;;;;;;;;;5087761;28;20458;-79
2023/01/11 10:19:31;;;;;;;8.23;2.60;;;;;;;;;;5089092;28;20719;-78
2023/01/11 10:22:03;;;;;;;12.67;3.10;;;;;;;;;;5097581;28;20447;-79
2023/01/11 10:24:52;;;;;;;6.50;3.00;;;;;;;;;;5086977;28;20451;-78
2023/01/11 10:27:26;;;;;;;9.00;3.83;;;;;;;;;;5082602;28;20506;-81
2023/01/11 10:32:51;;;;;;;12.90;3.90;;;;;;;;;;5087150;28;20432;-79
2023/01/11 10:36:01;;;;;;;5.23;2.40;;;;;;;;;;5084148;28;20443;-79
2023/01/11 10:38:53;;;;;;;13.13;3.53;;;;;;;;;;5086556;28;23087;-80
2023/01/11 10:41:37;;;;;;;17.30;2.70;;;;;;;;;;5085177;28;20461;-80
2023/01/11 10:44:09;;;;;;;9.90;2.67;;;;;;;;;;5085956;28;20467;-79
2023/01/11 10:46:42;;;;;;;10.80;4.53;;;;;;;;;;5102441;27;20431;-80
2023/01/11 10:49:27;;;;;;;9.17;3.07;;;;;;;;;;5098996;27;20497;-80
2023/01/11 10:51:56;;;;;;;8.03;2.60;;;;;;;;;;5086054;28;20443;-79
2023/01/11 10:54:27;;;;;;;7.37;2.97;;;;;;;;;;5083787;28;20934;-80
2023/01/11 10:57:02;;;;;;;9.30;3.27;;;;;;;;;;5085498;28;20470;-81
2023/01/11 10:59:28;;;;;;;10.00;2.50;;;;;;;;;;5081644;28;20820;-80
2023/01/11 11:02:09;;;;;;;10.20;4.30;;;;;;;;;;5090034;28;20432;-80
2023/01/11 11:04:38;;;;;;;4.93;3.07;;;;;;;;;;5087642;28;20440;-80
2023/01/11 11:07:13;;;;;;;9.90;2.40;;;;;;;;;;5078868;28;20413;-79
2023/01/11 11:10:02;;;;;;;5.97;2.90;;;;;;;;;;5075854;28;20427;-78
2023/01/11 11:12:30;;;;;;;5.00;3.40;;;;;;;;;;5081853;28;20439;-80
2023/01/11 11:15:07;;;;;;;7.00;3.90;;;;;;;;;;5083676;28;20455;-78
2023/01/11 11:17:37;;;;;;;10.57;3.53;;;;;;;;;;5086448;28;20785;-79
2023/01/11 11:20:14;;;;;;;12.27;3.60;;;;;;;;;;5104690;27;20458;-77
2023/01/11 11:22:40;;;;;;;8.20;3.33;;;;;;;;;;5074184;28;20958;-78
2023/01/11 11:25:17;;;;;;;9.87;3.37;;;;;;;;;;5084465;28;20466;-77
2023/01/11 11:27:52;;;;;;;6.97;3.50;;;;;;;;;;5079322;28;20503;-78
2023/01/11 11:30:27;;;;;;;10.47;2.80;;;;;;;;;;5101086;27;20458;-77
2023/01/11 11:32:56;;;;;;;8.47;3.53;;;;;;;;;;5091630;28;20434;-78
2023/01/11 11:35:31;;;;;;;5.97;3.60;;;;;;;;;;5089975;28;20458;-80
2023/01/11 11:37:57;;;;;;;7.37;3.47;;;;;;;;;;5083488;28;20493;-79
2023/01/11 11:40:32;;;;;;;5.63;3.40;;;;;;;;;;5091223;28;20508;-80
2023/01/11 11:43:27;;;;;;;9.07;4.10;;;;;;;;;;5094727;28;20514;-80
2023/01/11 11:45:57;;;;;;;6.67;3.63;;;;;;;;;;5075102;28;20432;-80
2023/01/11 11:48:25;;;;;;;10.87;4.20;;;;;;;;;;5081460;28;20429;-81
2023/01/11 11:50:55;;;;;;;7.93;3.60;;;;;;;;;;5096421;28;20443;-77
2023/01/11 11:53:42;;;;;;;3.83;3.50;;;;;;;;;;5081539;28;20506;-77
2023/01/11 11:56:42;;;;;;;3.27;2.93;;;;;;;;;;5071969;28;20514;-78
2023/01/11 11:59:10;;;;;;;14.53;4.50;;;;;;;;;;5066152;28;20924;-78
2023/01/11 12:01:38;;;;;;;5.43;4.40;;;;;;;;;;5075184;28;20429;-78
2023/01/11 12:04:10;;;;;;;8.53;4.10;;;;;;;;;;5088887;28;20682;-75
2023/01/11 12:06:36;;;;;;;6.17;4.60;;;;;;;;;;5083663;28;20436;-75
2023/01/11 12:09:04;;;;;;;9.83;5.27;;;;;;;;;;5082552;28;20432;-76
2023/01/11 12:11:34;;;;;;;7.33;5.00;;;;;;;;;;5084082;28;20463;-77
2023/01/11 12:14:17;;;;;;;4.70;3.80;;;;;;;;;;5105018;28;20454;-76
2023/01/11 12:16:44;;;;;;;5.27;4.00;;;;;;;;;;5087908;28;20455;-76
2023/01/11 12:19:26;;;;;;;5.13;3.70;;;;;;;;;;5085787;28;20942;-76
2023/01/11 12:21:52;;;;;;;6.27;2.83;;;;;;;;;;5088118;28;20455;-75
2023/01/11 12:24:18;;;;;;;9.30;3.40;;;;;;;;;;5081873;28;20599;-76
2023/01/11 12:27:03;;;;;;;9.13;5.00;;;;;;;;;;5100303;27;20808;-77
2023/01/11 12:29:29;;;;;;;3.30;3.00;;;;;;;;;;5075124;28;20428;-76
2023/01/11 12:32:03;;;;;;;8.20;3.20;;;;;;;;;;5080975;28;20442;-77
2023/01/11 12:34:32;;;;;;;2.37;2.17;;;;;;;;;;5071322;28;20443;-76
2023/01/11 12:37:24;;;;;;;4.40;2.40;;;;;;;;;;5082095;28;20460;-75
2023/01/11 12:40:02;;;;;;;2.40;2.20;;;;;;;;;;5065935;28;20427;-77
2023/01/11 12:42:28;;;;;;;4.10;2.90;;;;;;;;;;5083577;28;20516;-76
2023/01/11 12:45:00;;;;;;;6.67;2.43;;;;;;;;;;5075402;28;20491;-78
2023/01/11 12:47:45;;;;;;;8.73;4.33;;;;;;;;;;5083767;28;20537;-78
2023/01/11 12:50:23;;;;;;;3.60;3.30;;;;;;;;;;5085123;28;20568;-76
2023/01/11 12:52:49;;;;;;;12.40;4.30;;;;;;;;;;5085171;28;20510;-77
2023/01/11 12:55:21;;;;;;;8.23;3.63;;;;;;;;;;5105087;27;20608;-76
2023/01/11 12:57:53;;;;;;;10.10;4.90;;;;;;;;;;5086325;28;20895;-76
2023/01/11 13:00:26;;;;;;;7.00;4.43;;;;;;;;;;5078389;28;20415;-77
2023/01/11 13:02:58;;;;;;;5.50;3.03;;;;;;;;;;5075219;28;20432;-77
2023/01/11 13:05:30;;;;;;;4.43;2.33;;;;;;;;;;5072536;28;20715;-76
2023/01/11 13:08:02;;;;;;;4.93;3.60;;;;;;;;;;5083267;28;20487;-77
2023/01/11 13:10:48;;;;;;;6.20;3.27;;;;;;;;;;5078517;28;20480;-76
2023/01/11 13:13:15;;;;;;;3.80;1.90;;;;;;;;;;5078454;28;20779;-76
2023/01/11 13:15:44;;;;;;;6.40;2.70;;;;;;;;;;5083543;28;20960;-76
2023/01/11 13:18:13;;;;;;;3.60;2.37;;;;;;;;;;5084920;28;21313;-78
2023/01/11 13:20:47;;;;;;;4.00;1.93;;;;;;;;;;5078113;28;20447;-76
2023/01/11 13:23:16;;;;;;;6.70;2.90;;;;;;;;;;5075264;28;20440;-77
2023/01/11 13:25:44;;;;;;;3.37;2.10;;;;;;;;;;5081680;28;20419;-76
2023/01/11 13:28:32;;;;;;;2.63;2.10;;;;;;;;;;5081282;28;20588;-75
2023/01/11 13:30:59;;;;;;;4.07;2.60;;;;;;;;;;5077815;28;20412;-76
2023/01/11 13:33:29;;;;;;;5.60;2.97;;;;;;;;;;5078898;28;20442;-76
2023/01/11 13:36:01;;;;;;;4.60;2.30;;;;;;;;;;5075832;28;20825;-77
2023/01/11 13:38:34;;;;;;;6.47;2.53;;;;;;;;;;5079746;28;20672;-76
2023/01/11 13:41:06;;;;;;;7.93;3.00;;;;;;;;;;5084663;28;20428;-76
2023/01/11 13:43:45;;;;;;;3.73;2.33;;;;;;;;;;5078224;28;20954;-76
2023/01/11 13:46:18;;;;;;;5.90;1.60;;;;;;;;;;5080971;28;20507;-76
2023/01/11 13:49:04;;;;;;;5.90;2.50;;;;;;;;;;5073302;28;20527;-78
2023/01/11 13:51:48;;;;;;;8.47;2.20;;;;;;;;;;5076018;28;20424;-76
2023/01/11 13:54:41;;;;;;;7.30;2.50;;;;;;;;;;5086006;28;20563;-76
2023/01/11 13:57:12;;;;;;;5.60;1.90;;;;;;;;;;5062869;28;20476;-76
2023/01/11 13:59:44;;;;;;;7.70;2.23;;;;;;;;;;5081259;28;20444;-75
2023/01/11 14:02:10;;;;;;;3.80;1.63;;;;;;;;;;5073329;28;20424;-75
2023/01/11 14:04:58;;;;;;;6.00;2.37;;;;;;;;;;5082931;28;20528;-75
2023/01/11 14:07:33;;;;;;;10.60;2.40;;;;;;;;;;5075426;28;20795;-74
2023/01/11 14:10:08;;;;;;;2.33;1.70;;;;;;;;;;5077512;28;20407;-75
2023/01/11 14:12:40;;;;;;;6.57;3.07;;;;;;;;;;5074956;28;20442;-75
2023/01/11 14:15:14;;;;;;;4.50;1.90;;;;;;;;;;5080832;28;20457;-75
2023/01/11 14:17:43;;;;;;;3.13;2.00;;;;;;;;;;5072569;28;20460;-75
2023/01/11 14:20:22;;;;;;;5.70;2.40;;;;;;;;;;5082730;28;20423;-76
2023/01/11 14:23:03;;;;;;;5.13;2.30;;;;;;;;;;5073040;28;20822;-76
2023/01/11 14:25:55;;;;;;;3.40;2.10;;;;;;;;;;5075066;28;20401;-76
2023/01/11 14:28:40;;;;;;;4.90;2.03;;;;;;;;;;5069107;28;20432;-76
2023/01/11 14:31:24;;;;;;;8.53;2.00;;;;;;;;;;5084941;28;20424;-75
2023/01/11 14:33:59;;;;;;;7.23;2.53;;;;;;;;;;5094291;28;20447;-75
2023/01/11 14:36:31;;;;;;;6.50;2.50;;;;;;;;;;5081282;28;20442;-78
2023/01/11 14:39:00;;;;;;;5.97;1.97;;;;;;;;;;5092777;28;20466;-76
2023/01/11 14:41:41;;;;;;;6.93;1.97;;;;;;;;;;5083527;28;20989;-75
2023/01/11 14:44:13;;;;;;;10.60;2.27;;;;;;;;;;5077917;28;20926;-77
2023/01/11 14:46:54;;;;;;;2.37;2.17;;;;;;;;;;5076304;28;20420;-77
2023/01/11 14:49:27;;;;;;;7.90;1.57;;;;;;;;;;5097951;28;20440;-76
2023/01/11 14:51:53;;;;;;;5.20;1.70;;;;;;;;;;5084135;28;20760;-76
2023/01/11 14:54:28;;;;;;;4.87;2.10;;;;;;;;;;5089449;28;20440;-77
2023/01/11 14:56:55;;;;;;;14.43;4.00;;;;;;;;;;5073765;28;20462;-76
2023/01/11 14:59:24;;;;;;;1.30;1.20;;;;;;;;;;5097060;28;20997;-75
2023/01/11 15:02:19;;;;;;;6.03;1.70;;;;;;;;;;5082132;28;20440;-77
2023/01/11 15:05:06;;;;;;;6.63;2.30;;;;;;;;;;5079085;28;20841;-77
2023/01/11 15:07:32;;;;;;;4.83;1.53;;;;;;;;;;5084056;28;20424;-76
2023/01/11 15:09:59;;;;;;;4.60;2.30;;;;;;;;;;5086621;28;20475;-77
2023/01/11 15:12:31;;;;;;;3.50;1.50;;;;;;;;;;5084160;28;20435;-76
2023/01/11 15:15:03;;;;;;;6.20;3.07;;;;;;;;;;5086199;28;20534;-77
2023/01/11 15:20:21;;;;;;;3.90;2.50;;;;;;;;;;5088771;28;20418;-77
2023/01/11 15:22:55;;;;;;;8.60;2.67;;;;;;;;;;5088983;28;20439;-77
2023/01/11 15:25:21;;;;;;;14.00;3.73;;;;;;;;;;5087603;28;20460;-77
2023/01/11 15:27:47;;;;;;;8.50;2.30;;;;;;;;;;5087650;28;20434;-76
2023/01/11 15:30:28;;;;;;;7.40;1.90;;;;;;;;;;5086289;28;20440;-77